sensor_id;sensor_type;location;lat;lon;timestamp;pressure;altitude;pressure_sealevel;temperature;humidity
66486;BME280;53303;47.476;8.084;2023-03-22T00:00:52;95190.41;;;20.23;39.59
66486;BME280;53303;47.476;8.084;2023-03-22T00:03:18;95209.69;;;20.40;39.42
66486;BME280;53303;47.476;8.084;2023-03-22T00:05:44;95185.13;;;20.25;39.70
66486;BME280;53303;47.476;8.084;2023-03-22T00:08:09;95209.69;;;20.40;39.58
66486;BME280;53303;47.476;8.084;2023-03-22T00:10:36;95210.19;;;20.39;39.59
66486;BME280;53303;47.476;8.084;2023-03-22T00:13:03;95213.19;;;20.41;39.67
66486;BME280;53303;47.476;8.084;2023-03-22T00:15:29;95212.50;;;20.34;39.57
66486;BME280;53303;47.476;8.084;2023-03-22T00:18:00;95209.69;;;20.40;39.51
66486;BME280;53303;47.476;8.084;2023-03-22T00:20:27;95206.91;;;20.40;39.64
66486;BME280;53303;47.476;8.084;2023-03-22T00:22:59;95215.97;;;20.41;39.51
66486;BME280;53303;47.476;8.084;2023-03-22T00:25:26;95199.66;;;20.31;39.62
66486;BME280;53303;47.476;8.084;2023-03-22T00:27:55;95212.47;;;20.40;39.50
66486;BME280;53303;47.476;8.084;2023-03-22T00:30:20;95208.94;;;20.40;39.66
66486;BME280;53303;47.476;8.084;2023-03-22T00:32:46;95210.94;;;20.39;39.53
66486;BME280;53303;47.476;8.084;2023-03-22T00:35:11;95204.88;;;20.41;39.61
66486;BME280;53303;47.476;8.084;2023-03-22T00:37:37;95202.13;;;20.41;39.50
66486;BME280;53303;47.476;8.084;2023-03-22T00:40:06;95192.31;;;20.40;39.59
66486;BME280;53303;47.476;8.084;2023-03-22T00:42:36;95185.03;;;20.37;39.70
66486;BME280;53303;47.476;8.084;2023-03-22T00:48:23;95186.31;;;20.30;39.56
66486;BME280;53303;47.476;8.084;2023-03-22T00:50:49;95188.34;;;20.29;39.75
66486;BME280;53303;47.476;8.084;2023-03-22T00:53:15;95193.56;;;20.39;39.66
66486;BME280;53303;47.476;8.084;2023-03-22T00:55:40;95188.53;;;20.37;39.62
66486;BME280;53303;47.476;8.084;2023-03-22T00:58:11;95193.06;;;20.40;39.49
66486;BME280;53303;47.476;8.084;2023-03-22T01:00:36;95187.28;;;20.38;39.73
66486;BME280;53303;47.476;8.084;2023-03-22T01:03:02;95186.31;;;20.30;39.58
66486;BME280;53303;47.476;8.084;2023-03-22T01:05:33;95182.72;;;20.41;39.54
66486;BME280;53303;47.476;8.084;2023-03-22T01:08:00;95176.44;;;20.40;39.62
66486;BME280;53303;47.476;8.084;2023-03-22T01:10:30;95175.69;;;20.40;39.70
66486;BME280;53303;47.476;8.084;2023-03-22T01:12:56;95158.84;;;20.32;39.67
66486;BME280;53303;47.476;8.084;2023-03-22T01:15:21;95167.38;;;20.40;39.43
66486;BME280;53303;47.476;8.084;2023-03-22T01:17:47;95172.16;;;20.39;39.51
66486;BME280;53303;47.476;8.084;2023-03-22T01:20:13;95141.28;;;20.24;39.67
66486;BME280;53303;47.476;8.084;2023-03-22T01:22:39;95148.50;;;20.38;39.49
66486;BME280;53303;47.476;8.084;2023-03-22T01:25:04;95138.72;;;20.31;39.62
66486;BME280;53303;47.476;8.084;2023-03-22T01:27:31;95147.97;;;20.40;39.55
66486;BME280;53303;47.476;8.084;2023-03-22T01:29:59;95154.78;;;20.39;39.62
66486;BME280;53303;47.476;8.084;2023-03-22T01:32:25;95148.50;;;20.38;39.78
66486;BME280;53303;47.476;8.084;2023-03-22T01:34:52;95132.94;;;20.29;39.70
66486;BME280;53303;47.476;8.084;2023-03-22T01:37:18;95140.97;;;20.33;39.50
66486;BME280;53303;47.476;8.084;2023-03-22T01:39:44;95145.75;;;20.32;39.60
66486;BME280;53303;47.476;8.084;2023-03-22T01:42:14;95151.25;;;20.38;39.42
66486;BME280;53303;47.476;8.084;2023-03-22T01:45:09;95150.50;;;20.38;39.47
66486;BME280;53303;47.476;8.084;2023-03-22T01:47:31;95144.47;;;20.33;39.46
66486;BME280;53303;47.476;8.084;2023-03-22T01:50:01;95136.22;;;20.28;39.43
66486;BME280;53303;47.476;8.084;2023-03-22T01:52:26;95137.16;;;20.36;39.55
66486;BME280;53303;47.476;8.084;2023-03-22T01:54:53;95143.47;;;20.37;39.54
66486;BME280;53303;47.476;8.084;2023-03-22T01:57:19;95137.91;;;20.37;39.39
66486;BME280;53303;47.476;8.084;2023-03-22T01:59:45;95144.19;;;20.37;39.15
66486;BME280;53303;47.476;8.084;2023-03-22T02:02:12;95126.88;;;20.31;39.56
66486;BME280;53303;47.476;8.084;2023-03-22T02:04:43;95134.41;;;20.36;39.41
66486;BME280;53303;47.476;8.084;2023-03-22T02:07:15;95133.13;;;20.37;39.52
66486;BME280;53303;47.476;8.084;2023-03-22T02:09:51;95126.09;;;20.36;39.44
66486;BME280;53303;47.476;8.084;2023-03-22T02:42:49;95112.28;;;20.30;39.40
66486;BME280;53303;47.476;8.084;2023-03-22T02:45:33;95109.50;;;20.30;39.47
66486;BME280;53303;47.476;8.084;2023-03-22T02:50:53;95108.75;;;20.30;39.40
66486;BME280;53303;47.476;8.084;2023-03-22T02:53:35;95092.72;;;20.17;39.34
66486;BME280;53303;47.476;8.084;2023-03-22T02:56:10;95084.72;;;20.13;39.29
66486;BME280;53303;47.476;8.084;2023-03-22T02:58:44;95117.81;;;20.30;39.56
66486;BME280;53303;47.476;8.084;2023-03-22T03:01:25;95106.81;;;20.19;39.40
66486;BME280;53303;47.476;8.084;2023-03-22T03:03:54;95122.59;;;20.30;39.41
66486;BME280;53303;47.476;8.084;2023-03-22T03:06:23;95114.28;;;20.30;39.49
66486;BME280;53303;47.476;8.084;2023-03-22T03:08:54;95114.56;;;20.26;39.24
66486;BME280;53303;47.476;8.084;2023-03-22T03:11:22;95113.03;;;20.31;39.33
66486;BME280;53303;47.476;8.084;2023-03-22T03:13:49;95098.72;;;20.27;39.52
66486;BME280;53303;47.476;8.084;2023-03-22T03:16:19;95111.50;;;20.30;39.30
66486;BME280;53303;47.476;8.084;2023-03-22T03:21:43;95111.50;;;20.30;39.43
66486;BME280;53303;47.476;8.084;2023-03-22T03:24:31;95107.53;;;20.25;39.19
66486;BME280;53303;47.476;8.084;2023-03-22T03:27:01;95102.47;;;20.29;39.41
66486;BME280;53303;47.476;8.084;2023-03-22T03:32:21;95104.00;;;20.25;39.34
66486;BME280;53303;47.476;8.084;2023-03-22T03:35:10;95099.75;;;20.24;39.25
66486;BME280;53303;47.476;8.084;2023-03-22T03:37:50;95100.72;;;20.26;39.29
66486;BME280;53303;47.476;8.084;2023-03-22T03:40:21;95105.00;;;20.27;39.27
66486;BME280;53303;47.476;8.084;2023-03-22T03:42:53;95093.91;;;20.27;39.35
66486;BME280;53303;47.476;8.084;2023-03-22T03:45:22;95100.19;;;20.28;39.42
66486;BME280;53303;47.476;8.084;2023-03-22T03:47:56;95091.94;;;20.22;39.09
66486;BME280;53303;47.476;8.084;2023-03-22T03:50:25;95096.69;;;20.27;39.13
66486;BME280;53303;47.476;8.084;2023-03-22T03:52:52;95098.16;;;20.28;39.32
66486;BME280;53303;47.476;8.084;2023-03-22T03:55:22;95098.16;;;20.28;39.26
66486;BME280;53303;47.476;8.084;2023-03-22T03:57:47;95082.13;;;20.21;39.20
66486;BME280;53303;47.476;8.084;2023-03-22T04:00:16;95097.19;;;20.26;39.26
66486;BME280;53303;47.476;8.084;2023-03-22T04:02:42;95074.13;;;20.12;39.17
66486;BME280;53303;47.476;8.084;2023-03-22T04:05:09;95097.44;;;20.28;39.16
66486;BME280;53303;47.476;8.084;2023-03-22T04:07:35;95096.16;;;20.29;39.09
66486;BME280;53303;47.476;8.084;2023-03-22T04:10:02;95093.16;;;20.27;39.24
66486;BME280;53303;47.476;8.084;2023-03-22T04:12:30;95094.44;;;20.26;39.36
66486;BME280;53303;47.476;8.084;2023-03-22T04:14:56;95085.66;;;20.22;39.07
66486;BME280;53303;47.476;8.084;2023-03-22T04:17:24;95090.97;;;20.20;39.05
66486;BME280;53303;47.476;8.084;2023-03-22T04:19:54;95097.44;;;20.28;39.25
66486;BME280;53303;47.476;8.084;2023-03-22T04:22:22;95097.47;;;20.22;39.14
66486;BME280;53303;47.476;8.084;2023-03-22T04:24:48;95098.16;;;20.28;39.23
66486;BME280;53303;47.476;8.084;2023-03-22T04:27:20;95096.69;;;20.27;39.05
66486;BME280;53303;47.476;8.084;2023-03-22T04:29:46;95099.47;;;20.27;39.20
66486;BME280;53303;47.476;8.084;2023-03-22T04:32:18;95090.16;;;20.25;39.17
66486;BME280;53303;47.476;8.084;2023-03-22T04:34:46;95100.19;;;20.28;39.05
66486;BME280;53303;47.476;8.084;2023-03-22T04:37:12;95101.47;;;20.27;39.21
66486;BME280;53303;47.476;8.084;2023-03-22T04:39:38;95093.91;;;20.27;39.16
66486;BME280;53303;47.476;8.084;2023-03-22T04:42:04;95095.69;;;20.25;39.26
66486;BME280;53303;47.476;8.084;2023-03-22T04:44:29;95096.47;;;20.25;39.22
66486;BME280;53303;47.476;8.084;2023-03-22T04:46:55;95077.91;;;20.14;39.01
66486;BME280;53303;47.476;8.084;2023-03-22T04:49:20;95096.69;;;20.27;39.30
66486;BME280;53303;47.476;8.084;2023-03-22T04:51:46;95092.41;;;20.26;39.20
66486;BME280;53303;47.476;8.084;2023-03-22T04:54:11;95082.09;;;20.27;39.05
66486;BME280;53303;47.476;8.084;2023-03-22T04:56:37;95090.41;;;20.27;38.80
66486;BME280;53303;47.476;8.084;2023-03-22T04:59:02;95078.09;;;20.22;38.71
66486;BME280;53303;47.476;8.084;2023-03-22T05:01:27;95066.06;;;20.14;38.67
66486;BME280;53303;47.476;8.084;2023-03-22T05:03:53;95093.91;;;20.27;38.67
66486;BME280;53303;47.476;8.084;2023-03-22T05:06:18;95079.84;;;20.25;38.18
66486;BME280;53303;47.476;8.084;2023-03-22T05:08:44;95078.88;;;20.17;38.25
66486;BME280;53303;47.476;8.084;2023-03-22T05:11:13;95085.59;;;20.27;37.84
66486;BME280;53303;47.476;8.084;2023-03-22T05:13:39;95067.81;;;20.17;37.44
66486;BME280;53303;47.476;8.084;2023-03-22T05:16:08;95078.56;;;20.26;37.31
66486;BME280;53303;47.476;8.084;2023-03-22T05:18:34;95086.13;;;20.26;37.34
66486;BME280;53303;47.476;8.084;2023-03-22T05:21:02;95080.84;;;20.22;37.33
66486;BME280;53303;47.476;8.084;2023-03-22T05:23:31;95077.56;;;20.24;37.38
66486;BME280;53303;47.476;8.084;2023-03-22T05:25:56;95085.66;;;20.22;37.54
66486;BME280;53303;47.476;8.084;2023-03-22T05:28:23;95086.13;;;20.26;37.54
66486;BME280;53303;47.476;8.084;2023-03-22T05:30:49;95090.16;;;20.25;37.83
66486;BME280;53303;47.476;8.084;2023-03-22T05:33:16;95048.81;;;20.02;37.64
66486;BME280;53303;47.476;8.084;2023-03-22T05:35:46;95084.13;;;20.21;37.35
66486;BME280;53303;47.476;8.084;2023-03-22T05:38:14;95092.41;;;20.26;37.84
66486;BME280;53303;47.476;8.084;2023-03-22T05:40:41;95084.09;;;20.26;37.79
66486;BME280;53303;47.476;8.084;2023-03-22T05:43:06;95082.09;;;20.27;37.66
66486;BME280;53303;47.476;8.084;2023-03-22T05:45:31;95075.78;;;20.26;37.66
66486;BME280;53303;47.476;8.084;2023-03-22T05:48:02;95058.75;;;20.16;37.72
66486;BME280;53303;47.476;8.084;2023-03-22T05:50:28;95075.03;;;20.26;37.92
66486;BME280;53303;47.476;8.084;2023-03-22T05:52:53;95070.53;;;20.23;37.82
66486;BME280;53303;47.476;8.084;2023-03-22T05:55:24;95073.78;;;20.27;37.75
66486;BME280;53303;47.476;8.084;2023-03-22T05:57:49;95070.25;;;20.26;37.92
66486;BME280;53303;47.476;8.084;2023-03-22T06:00:17;95073.78;;;20.27;37.89
66486;BME280;53303;47.476;8.084;2023-03-22T06:02:45;95077.56;;;20.24;37.80
66486;BME280;53303;47.476;8.084;2023-03-22T06:05:15;95068.75;;;20.25;37.99
66486;BME280;53303;47.476;8.084;2023-03-22T06:07:41;95078.03;;;20.28;37.94
66486;BME280;53303;47.476;8.084;2023-03-22T06:10:12;95064.81;;;20.15;37.83
66486;BME280;53303;47.476;8.084;2023-03-22T06:12:38;95067.97;;;20.25;38.09
66486;BME280;53303;47.476;8.084;2023-03-22T06:15:07;95082.31;;;20.29;38.11
66486;BME280;53303;47.476;8.084;2023-03-22T06:17:35;95074.56;;;20.22;37.90
66486;BME280;53303;47.476;8.084;2023-03-22T06:20:03;95087.88;;;20.29;37.96
66486;BME280;53303;47.476;8.084;2023-03-22T06:22:36;95089.88;;;20.28;37.91
66486;BME280;53303;47.476;8.084;2023-03-22T06:25:07;95085.44;;;20.20;38.12
66486;BME280;53303;47.476;8.084;2023-03-22T06:27:35;95091.75;;;20.14;38.26
66486;BME280;53303;47.476;8.084;2023-03-22T06:30:01;95089.16;;;20.22;37.88
66486;BME280;53303;47.476;8.084;2023-03-22T06:32:26;95086.91;;;20.21;38.19
66486;BME280;53303;47.476;8.084;2023-03-22T06:34:55;95092.41;;;20.26;38.01
66486;BME280;53303;47.476;8.084;2023-03-22T06:37:21;95088.94;;;20.20;38.11
66486;BME280;53303;47.476;8.084;2023-03-22T06:39:49;95084.19;;;20.15;37.97
66486;BME280;53303;47.476;8.084;2023-03-22T06:42:18;95091.16;;;20.27;37.98
66486;BME280;53303;47.476;8.084;2023-03-22T06:44:43;95089.69;;;20.21;38.20
66486;BME280;53303;47.476;8.084;2023-03-22T06:47:10;95081.59;;;20.23;38.29
66486;BME280;53303;47.476;8.084;2023-03-22T06:49:35;95086.34;;;20.28;38.13
66486;BME280;53303;47.476;8.084;2023-03-22T06:52:01;95085.66;;;20.22;37.97
66486;BME280;53303;47.476;8.084;2023-03-22T06:54:30;95083.13;;;20.24;37.86
66486;BME280;53303;47.476;8.084;2023-03-22T06:56:55;95074.56;;;20.22;38.17
66486;BME280;53303;47.476;8.084;2023-03-22T06:59:21;95088.38;;;20.27;38.16
66486;BME280;53303;47.476;8.084;2023-03-22T07:01:48;95093.41;;;20.29;38.30
66486;BME280;53303;47.476;8.084;2023-03-22T07:04:16;95096.91;;;20.29;38.30
66486;BME280;53303;47.476;8.084;2023-03-22T07:06:41;95094.88;;;20.30;38.25
66486;BME280;53303;47.476;8.084;2023-03-22T07:09:12;95098.94;;;20.29;38.10
66486;BME280;53303;47.476;8.084;2023-03-22T07:11:39;95091.16;;;20.27;38.01
66486;BME280;53303;47.476;8.084;2023-03-22T07:14:08;95085.88;;;20.24;38.48
66486;BME280;53303;47.476;8.084;2023-03-22T07:16:33;95089.34;;;20.30;38.35
66486;BME280;53303;47.476;8.084;2023-03-22T07:18:59;95091.66;;;20.26;38.14
66486;BME280;53303;47.476;8.084;2023-03-22T07:21:25;95082.59;;;20.25;38.18
66486;BME280;53303;47.476;8.084;2023-03-22T07:23:51;95083.63;;;20.22;38.16
66486;BME280;53303;47.476;8.084;2023-03-22T07:26:16;95092.13;;;20.30;38.16
66486;BME280;53303;47.476;8.084;2023-03-22T07:28:44;95090.88;;;20.31;38.26
66486;BME280;53303;47.476;8.084;2023-03-22T07:31:11;95095.13;;;20.32;38.08
66486;BME280;53303;47.476;8.084;2023-03-22T07:33:38;95082.56;;;20.31;38.14
66486;BME280;53303;47.476;8.084;2023-03-22T07:36:05;95088.09;;;20.31;38.16
66486;BME280;53303;47.476;8.084;2023-03-22T07:38:34;95084.03;;;20.32;38.22
66486;BME280;53303;47.476;8.084;2023-03-22T07:41:04;95089.56;;;20.32;38.18
66486;BME280;53303;47.476;8.084;2023-03-22T07:43:30;95083.28;;;20.31;38.11
66486;BME280;53303;47.476;8.084;2023-03-22T07:45:57;95085.09;;;20.29;38.32
66486;BME280;53303;47.476;8.084;2023-03-22T07:48:23;95084.81;;;20.32;38.22
66486;BME280;53303;47.476;8.084;2023-03-22T07:50:49;95056.03;;;20.11;38.26
66486;BME280;53303;47.476;8.084;2023-03-22T07:53:20;95091.09;;;20.33;38.32
66486;BME280;53303;47.476;8.084;2023-03-22T07:55:46;95080.00;;;20.33;38.31
66486;BME280;53303;47.476;8.084;2023-03-22T07:58:14;95070.53;;;20.23;38.33
66486;BME280;53303;47.476;8.084;2023-03-22T08:00:39;95065.25;;;20.19;38.27
66486;BME280;53303;47.476;8.084;2023-03-22T08:03:04;95070.75;;;20.25;38.36
66486;BME280;53303;47.476;8.084;2023-03-22T08:05:30;95076.56;;;20.27;38.22
66486;BME280;53303;47.476;8.084;2023-03-22T08:07:55;95083.53;;;20.33;38.36
66486;BME280;53303;47.476;8.084;2023-03-22T08:10:23;95093.34;;;20.34;38.38
66486;BME280;53303;47.476;8.084;2023-03-22T08:12:48;95093.34;;;20.34;38.43
66486;BME280;53303;47.476;8.084;2023-03-22T08:15:14;95100.16;;;20.33;38.46
66486;BME280;53303;47.476;8.084;2023-03-22T08:17:40;95089.56;;;20.32;38.38
66486;BME280;53303;47.476;8.084;2023-03-22T08:20:06;95098.16;;;20.34;38.52
66486;BME280;53303;47.476;8.084;2023-03-22T08:22:34;95095.59;;;20.36;38.31
66486;BME280;53303;47.476;8.084;2023-03-22T08:25:01;95093.59;;;20.37;38.24
66486;BME280;53303;47.476;8.084;2023-03-22T08:27:26;95085.59;;;20.27;38.30
66486;BME280;53303;47.476;8.084;2023-03-22T08:29:52;95088.59;;;20.29;38.39
66486;BME280;53303;47.476;8.084;2023-03-22T08:32:17;95096.88;;;20.35;38.30
66486;BME280;53303;47.476;8.084;2023-03-22T08:34:46;95081.84;;;20.25;38.44
66486;BME280;53303;47.476;8.084;2023-03-22T08:37:12;95098.38;;;20.36;38.33
66486;BME280;53303;47.476;8.084;2023-03-22T08:39:39;95097.09;;;20.37;38.23
66486;BME280;53303;47.476;8.084;2023-03-22T08:42:08;95079.06;;;20.25;38.43
66486;BME280;53303;47.476;8.084;2023-03-22T08:44:33;95085.25;;;20.37;38.27
66486;BME280;53303;47.476;8.084;2023-03-22T08:46:59;95080.06;;;20.27;38.29
66486;BME280;53303;47.476;8.084;2023-03-22T08:49:24;95081.56;;;20.28;38.38
66486;BME280;53303;47.476;8.084;2023-03-22T08:51:52;95094.31;;;20.37;38.26
66486;BME280;53303;47.476;8.084;2023-03-22T08:54:18;95096.59;;;20.39;38.17
66486;BME280;53303;47.476;8.084;2023-03-22T08:56:43;95094.31;;;20.37;38.45
66486;BME280;53303;47.476;8.084;2023-03-22T08:59:11;95098.59;;;20.38;38.56
66486;BME280;53303;47.476;8.084;2023-03-22T09:01:37;95097.31;;;20.39;38.32
66486;BME280;53303;47.476;8.084;2023-03-22T09:04:03;95090.81;;;20.37;38.50
66486;BME280;53303;47.476;8.084;2023-03-22T09:06:29;95086.25;;;20.39;38.23
66486;BME280;53303;47.476;8.084;2023-03-22T09:08:54;95078.25;;;20.30;38.55
66486;BME280;53303;47.476;8.084;2023-03-22T09:11:23;95090.28;;;20.38;38.34
66486;BME280;53303;47.476;8.084;2023-03-22T09:13:49;95090.53;;;20.40;38.52
66486;BME280;53303;47.476;8.084;2023-03-22T09:16:17;95085.72;;;20.41;38.43
66486;BME280;53303;47.476;8.084;2023-03-22T09:18:43;95085.72;;;20.41;38.47
66486;BME280;53303;47.476;8.084;2023-03-22T09:21:10;95084.97;;;20.40;38.46
66486;BME280;53303;47.476;8.084;2023-03-22T09:23:37;95087.00;;;20.40;38.49
66486;BME280;53303;47.476;8.084;2023-03-22T09:26:05;95076.91;;;20.42;38.42
66486;BME280;53303;47.476;8.084;2023-03-22T09:28:32;95076.22;;;20.36;38.48
66486;BME280;53303;47.476;8.084;2023-03-22T09:31:06;95087.97;;;20.42;38.32
66486;BME280;53303;47.476;8.084;2023-03-22T09:33:35;95071.94;;;20.35;38.44
66486;BME280;53303;47.476;8.084;2023-03-22T09:36:01;95079.44;;;20.40;38.42
66486;BME280;53303;47.476;8.084;2023-03-22T09:38:29;95085.44;;;20.44;38.48
66486;BME280;53303;47.476;8.084;2023-03-22T09:41:02;95083.44;;;20.45;38.45
66486;BME280;53303;47.476;8.084;2023-03-22T09:43:33;95087.56;;;20.32;38.64
66486;BME280;53303;47.476;8.084;2023-03-22T09:46:00;95070.94;;;20.32;38.47
66486;BME280;53303;47.476;8.084;2023-03-22T09:48:31;95083.94;;;20.43;38.61
66486;BME280;53303;47.476;8.084;2023-03-22T09:50:59;95057.56;;;20.37;38.38
66486;BME280;53303;47.476;8.084;2023-03-22T09:53:28;95068.28;;;20.46;38.51
66486;BME280;53303;47.476;8.084;2023-03-22T10:10:13;95045.38;;;20.45;38.31
66486;BME280;53303;47.476;8.084;2023-03-22T10:13:01;95047.63;;;20.47;38.40
66486;BME280;53303;47.476;8.084;2023-03-22T10:15:39;95040.06;;;20.47;38.40
66486;BME280;53303;47.476;8.084;2023-03-22T10:18:12;95025.97;;;20.45;38.39
66486;BME280;53303;47.476;8.084;2023-03-22T10:23:26;95037.66;;;20.38;38.67
66486;BME280;53303;47.476;8.084;2023-03-22T10:25:55;95035.03;;;20.46;38.69
66486;BME280;53303;47.476;8.084;2023-03-22T10:28:23;95037.00;;;20.51;38.63
66486;BME280;53303;47.476;8.084;2023-03-22T10:30:55;95033.72;;;20.52;38.54
66486;BME280;53303;47.476;8.084;2023-03-22T10:35:53;95029.16;;;20.55;38.64
66486;BME280;53303;47.476;8.084;2023-03-22T10:38:24;95024.88;;;20.54;38.48
66486;BME280;53303;47.476;8.084;2023-03-22T10:40:54;95012.00;;;20.57;38.49
66486;BME280;53303;47.476;8.084;2023-03-22T10:45:51;94997.56;;;20.39;38.32
66486;BME280;53303;47.476;8.084;2023-03-22T10:50:49;95026.84;;;20.59;38.56
66486;BME280;53303;47.476;8.084;2023-03-22T10:56:10;95016.50;;;20.60;38.38
66486;BME280;53303;47.476;8.084;2023-03-22T10:58:39;95006.75;;;20.53;38.54
66486;BME280;53303;47.476;8.084;2023-03-22T11:01:08;95023.81;;;20.63;38.43
66486;BME280;53303;47.476;8.084;2023-03-22T11:03:37;95014.72;;;20.62;38.32
66486;BME280;53303;47.476;8.084;2023-03-22T11:06:22;95010.97;;;20.60;38.40
66486;BME280;53303;47.476;8.084;2023-03-22T11:08:55;95009.97;;;20.63;38.54
66486;BME280;53303;47.476;8.084;2023-03-22T11:16:20;94986.59;;;20.52;38.38
66486;BME280;53303;47.476;8.084;2023-03-22T11:18:49;95011.66;;;20.66;38.46
66486;BME280;53303;47.476;8.084;2023-03-22T11:21:16;94997.28;;;20.67;38.55
66486;BME280;53303;47.476;8.084;2023-03-22T11:23:53;94996.03;;;20.68;38.43
66486;BME280;53303;47.476;8.084;2023-03-22T11:26:40;95002.09;;;20.67;38.30
66486;BME280;53303;47.476;8.084;2023-03-22T11:29:16;94996.03;;;20.68;38.67
66486;BME280;53303;47.476;8.084;2023-03-22T11:31:56;94979.97;;;20.61;38.31
66486;BME280;53303;47.476;8.084;2023-03-22T11:34:28;94990.72;;;20.70;38.33
66486;BME280;53303;47.476;8.084;2023-03-22T11:36:54;94985.16;;;20.70;38.53
66486;BME280;53303;47.476;8.084;2023-03-22T11:39:26;94994.22;;;20.71;38.42
66486;BME280;53303;47.476;8.084;2023-03-22T11:41:58;94981.13;;;20.71;38.41
66486;BME280;53303;47.476;8.084;2023-03-22T11:44:27;94981.13;;;20.71;38.47
66486;BME280;53303;47.476;8.084;2023-03-22T11:46:59;94977.38;;;20.69;38.61
66486;BME280;53303;47.476;8.084;2023-03-22T11:49:47;94979.84;;;20.72;38.48
66486;BME280;53303;47.476;8.084;2023-03-22T11:54:42;94944.69;;;20.62;38.45
66486;BME280;53303;47.476;8.084;2023-03-22T11:57:16;94931.31;;;20.60;38.44
66486;BME280;53303;47.476;8.084;2023-03-22T12:00:05;94955.66;;;20.73;38.28
66486;BME280;53303;47.476;8.084;2023-03-22T12:02:56;94948.09;;;20.73;38.46
66486;BME280;53303;47.476;8.084;2023-03-22T12:05:25;94937.06;;;20.68;38.37
66486;BME280;53303;47.476;8.084;2023-03-22T12:07:58;94932.72;;;20.72;38.37
66486;BME280;53303;47.476;8.084;2023-03-22T12:10:30;94930.97;;;20.69;38.30
66486;BME280;53303;47.476;8.084;2023-03-22T12:13:02;94942.47;;;20.79;38.37
66486;BME280;53303;47.476;8.084;2023-03-22T12:15:34;94934.38;;;20.81;38.30
66486;BME280;53303;47.476;8.084;2023-03-22T12:18:09;94934.38;;;20.81;38.28
66486;BME280;53303;47.476;8.084;2023-03-22T12:23:29;94922.22;;;20.84;38.33
66486;BME280;53303;47.476;8.084;2023-03-22T12:26:04;94922.22;;;20.84;38.47
66486;BME280;53303;47.476;8.084;2023-03-22T12:31:37;94920.19;;;20.85;38.32
66486;BME280;53303;47.476;8.084;2023-03-22T12:34:13;94917.66;;;20.87;38.25
66486;BME280;53303;47.476;8.084;2023-03-22T12:37:04;94916.59;;;20.90;38.26
66486;BME280;53303;47.476;8.084;2023-03-22T12:39:33;94900.94;;;20.73;38.27
66486;BME280;53303;47.476;8.084;2023-03-22T12:42:04;94919.06;;;20.94;38.23
66486;BME280;53303;47.476;8.084;2023-03-22T12:44:39;94900.28;;;20.86;38.40
66486;BME280;53303;47.476;8.084;2023-03-22T12:47:37;94909.78;;;20.91;38.39
66486;BME280;53303;47.476;8.084;2023-03-22T12:50:18;94906.72;;;20.95;38.19
66486;BME280;53303;47.476;8.084;2023-03-22T12:52:47;94907.16;;;20.99;38.14
66486;BME280;53303;47.476;8.084;2023-03-22T12:55:20;94901.09;;;21.00;38.31
66486;BME280;53303;47.476;8.084;2023-03-22T12:57:50;94903.56;;;21.04;38.11
66486;BME280;53303;47.476;8.084;2023-03-22T13:00:27;94893.72;;;21.03;38.34
66486;BME280;53303;47.476;8.084;2023-03-22T13:03:17;94902.81;;;21.03;38.27
66486;BME280;53303;47.476;8.084;2023-03-22T13:05:58;94893.63;;;21.08;38.16
66486;BME280;53303;47.476;8.084;2023-03-22T13:08:23;94883.91;;;21.02;38.21
66486;BME280;53303;47.476;8.084;2023-03-22T13:11:00;94891.84;;;21.11;38.00
66486;BME280;53303;47.476;8.084;2023-03-22T13:13:42;94879.72;;;21.14;37.96
66486;BME280;53303;47.476;8.084;2023-03-22T13:21:19;94876.06;;;21.19;38.00
66486;BME280;53303;47.476;8.084;2023-03-22T13:32:03;94863.31;;;21.29;38.01
66486;BME280;53303;47.476;8.084;2023-03-22T13:36:56;94853.19;;;21.32;37.83
66486;BME280;53303;47.476;8.084;2023-03-22T13:39:22;94871.22;;;21.39;37.94
66486;BME280;53303;47.476;8.084;2023-03-22T13:42:05;94856.50;;;21.30;37.99
66486;BME280;53303;47.476;8.084;2023-03-22T13:44:38;94862.59;;;21.42;37.77
66486;BME280;53303;47.476;8.084;2023-03-22T13:47:08;94864.09;;;21.43;37.58
66486;BME280;53303;47.476;8.084;2023-03-22T13:49:57;94849.56;;;21.37;37.97
66486;BME280;53303;47.476;8.084;2023-03-22T13:52:28;94853.97;;;21.46;37.55
66486;BME280;53303;47.476;8.084;2023-03-22T13:54:59;94859.00;;;21.47;37.56
66486;BME280;53303;47.476;8.084;2023-03-22T13:57:45;94862.97;;;21.52;37.50
66486;BME280;53303;47.476;8.084;2023-03-22T14:00:35;94855.91;;;21.51;37.64
66486;BME280;53303;47.476;8.084;2023-03-22T14:03:39;94851.88;;;21.52;37.69
66486;BME280;53303;47.476;8.084;2023-03-22T14:06:22;94842.25;;;21.53;37.60
66486;BME280;53303;47.476;8.084;2023-03-22T14:08:54;94843.13;;;21.61;37.44
66486;BME280;53303;47.476;8.084;2023-03-22T14:11:28;94838.84;;;21.60;37.61
66486;BME280;53303;47.476;8.084;2023-03-22T14:14:03;94827.31;;;21.56;37.45
66486;BME280;53303;47.476;8.084;2023-03-22T14:16:37;94833.75;;;21.64;37.67
66486;BME280;53303;47.476;8.084;2023-03-22T14:19:06;94827.88;;;21.68;37.48
66486;BME280;53303;47.476;8.084;2023-03-22T14:21:42;94829.25;;;21.75;37.50
66486;BME280;53303;47.476;8.084;2023-03-22T14:24:14;94821.25;;;21.71;37.56
66486;BME280;53303;47.476;8.084;2023-03-22T14:26:43;94833.19;;;21.79;37.48
66486;BME280;53303;47.476;8.084;2023-03-22T14:29:18;94832.88;;;21.83;37.49
66486;BME280;53303;47.476;8.084;2023-03-22T14:31:53;94837.38;;;21.86;37.50
66486;BME280;53303;47.476;8.084;2023-03-22T14:34:21;94829.25;;;21.88;37.54
66486;BME280;53303;47.476;8.084;2023-03-22T14:36:47;94833.53;;;21.89;37.53
66486;BME280;53303;47.476;8.084;2023-03-22T14:39:21;94832.44;;;21.92;37.30
66486;BME280;53303;47.476;8.084;2023-03-22T14:44:22;94827.88;;;21.95;37.52
66486;BME280;53303;47.476;8.084;2023-03-22T14:46:49;94827.09;;;21.94;37.47
66486;BME280;53303;47.476;8.084;2023-03-22T14:49:17;94831.06;;;21.99;37.43
66486;BME280;53303;47.476;8.084;2023-03-22T14:51:45;94818.03;;;21.94;37.38
66486;BME280;53303;47.476;8.084;2023-03-22T14:54:18;94801.69;;;21.90;37.36